sensor_id;sensor_type;location;lat;lon;timestamp;temperature;humidity
4520;DHT22;2272;49.226;8.108;2023-08-17T07:57:27;22.10;99.90
4520;DHT22;2272;49.226;8.108;2023-08-17T07:59:54;21.70;99.90
4520;DHT22;2272;49.226;8.108;2023-08-17T08:02:20;21.80;99.90
4520;DHT22;2272;49.226;8.108;2023-08-17T08:04:47;22.00;99.90
4520;DHT22;2272;49.226;8.108;2023-08-17T08:07:14;22.10;99.90
4520;DHT22;2272;49.226;8.108;2023-08-17T08:09:41;22.30;99.90
4520;DHT22;2272;49.226;8.108;2023-08-17T08:12:08;22.50;99.90
4520;DHT22;2272;49.226;8.108;2023-08-17T08:14:36;22.60;99.90
4520;DHT22;2272;49.226;8.108;2023-08-17T08:17:03;22.90;99.90
4520;DHT22;2272;49.226;8.108;2023-08-17T08:19:30;23.20;99.90
4520;DHT22;2272;49.226;8.108;2023-08-17T08:21:58;23.30;99.90
4520;DHT22;2272;49.226;8.108;2023-08-17T08:24:25;23.40;99.90
4520;DHT22;2272;49.226;8.108;2023-08-17T08:26:56;23.30;99.90
4520;DHT22;2272;49.226;8.108;2023-08-17T08:32:29;23.30;99.90
4520;DHT22;2272;49.226;8.108;2023-08-17T08:34:56;23.20;99.90
4520;DHT22;2272;49.226;8.108;2023-08-17T08:37:23;23.10;99.90
4520;DHT22;2272;49.226;8.108;2023-08-17T08:39:51;22.90;99.90
4520;DHT22;2272;49.226;8.108;2023-08-17T08:42:22;22.80;99.90
4520;DHT22;2272;49.226;8.108;2023-08-17T08:44:50;22.80;99.90
4520;DHT22;2272;49.226;8.108;2023-08-17T08:47:17;22.80;99.90
4520;DHT22;2272;49.226;8.108;2023-08-17T08:49:49;22.90;99.90
4520;DHT22;2272;49.226;8.108;2023-08-17T08:52:21;22.80;99.90
4520;DHT22;2272;49.226;8.108;2023-08-17T08:54:50;22.70;99.90
4520;DHT22;2272;49.226;8.108;2023-08-17T08:57:17;22.60;99.90
4520;DHT22;2272;49.226;8.108;2023-08-17T08:59:45;22.50;99.90
4520;DHT22;2272;49.226;8.108;2023-08-17T09:02:14;22.60;99.90
4520;DHT22;2272;49.226;8.108;2023-08-17T09:04:42;22.90;99.90
4520;DHT22;2272;49.226;8.108;2023-08-17T09:07:12;23.40;99.90
4520;DHT22;2272;49.226;8.108;2023-08-17T09:09:39;23.60;99.90
4520;DHT22;2272;49.226;8.108;2023-08-17T09:12:07;23.40;99.90
4520;DHT22;2272;49.226;8.108;2023-08-17T09:14:35;23.20;99.90
4520;DHT22;2272;49.226;8.108;2023-08-17T09:17:03;23.30;99.90
4520;DHT22;2272;49.226;8.108;2023-08-17T09:19:31;23.60;99.90
4520;DHT22;2272;49.226;8.108;2023-08-17T09:21:59;24.20;99.90
4520;DHT22;2272;49.226;8.108;2023-08-17T09:24:35;24.60;99.90
4520;DHT22;2272;49.226;8.108;2023-08-17T09:27:03;24.90;99.90
4520;DHT22;2272;49.226;8.108;2023-08-17T09:29:31;24.70;99.90
4520;DHT22;2272;49.226;8.108;2023-08-17T09:32:04;24.40;99.90
4520;DHT22;2272;49.226;8.108;2023-08-17T09:34:32;24.20;99.90
4520;DHT22;2272;49.226;8.108;2023-08-17T09:37:02;23.80;99.90
4520;DHT22;2272;49.226;8.108;2023-08-17T09:39:29;23.90;99.90
4520;DHT22;2272;49.226;8.108;2023-08-17T09:42:02;24.10;99.90
4520;DHT22;2272;49.226;8.108;2023-08-17T09:44:29;24.40;99.90
4520;DHT22;2272;49.226;8.108;2023-08-17T09:46:55;24.60;99.90
4520;DHT22;2272;49.226;8.108;2023-08-17T09:49:23;24.70;99.90
4520;DHT22;2272;49.226;8.108;2023-08-17T09:51:50;24.80;99.90
4520;DHT22;2272;49.226;8.108;2023-08-17T09:54:21;24.80;99.90
4520;DHT22;2272;49.226;8.108;2023-08-17T09:56:50;25.10;99.90
4520;DHT22;2272;49.226;8.108;2023-08-17T09:59:19;25.20;99.90
4520;DHT22;2272;49.226;8.108;2023-08-17T10:01:50;25.40;99.90
4520;DHT22;2272;49.226;8.108;2023-08-17T10:04:20;25.60;99.90
4520;DHT22;2272;49.226;8.108;2023-08-17T10:06:51;25.60;99.90
4520;DHT22;2272;49.226;8.108;2023-08-17T10:09:23;25.60;99.90
4520;DHT22;2272;49.226;8.108;2023-08-17T10:11:52;25.70;99.90
4520;DHT22;2272;49.226;8.108;2023-08-17T10:14:28;25.70;99.90
4520;DHT22;2272;49.226;8.108;2023-08-17T10:17:01;25.90;99.90
